Time;durP1;ratioP1;P1;durP2;ratioP2;P2;SDS_P1;SDS_P2;PMS_P1;PMS_P2;Temp;Humidity;BMP_temperature;BMP_pressure;BME280_temperature;BME280_humidity;BME280_pressure;Samples;Min_cycle;Max_cycle;Signal;HPM_P1;HPM_P2
2023/01/21 12:34:56;;;;;;;23.70;13.30;;;;;;;1.93;77.76;96920.16;108673;1252;96047;-76
2023/01/21 12:37:48;;;;;;;26.10;11.90;;;;;;;1.90;77.54;96925.96;108591;1252;101040;-75
2023/01/21 12:40:24;;;;;;;23.90;12.60;;;;;;;1.87;77.52;96928.09;108745;1253;99993;-76
2023/01/21 12:42:58;;;;;;;18.80;10.30;;;;;;;1.79;77.43;96929.42;108749;1252;95635;-76
2023/01/21 12:45:38;;;;;;;18.10;9.20;;;;;;;1.71;77.52;96932.48;108622;1252;96067;-78
2023/01/21 12:48:21;;;;;;;20.30;11.00;;;;;;;1.71;77.71;96935.77;108504;1254;219417;-75
2023/01/21 12:50:56;;;;;;;16.30;10.40;;;;;;;1.71;77.73;96938.07;108802;1251;101424;-76
2023/01/21 12:53:38;;;;;;;16.80;10.50;;;;;;;1.70;77.78;96943.52;108764;1252;99929;-78
2023/01/21 12:56:32;;;;;;;20.20;12.70;;;;;;;1.68;77.64;96955.52;108812;1252;95554;-76
2023/01/21 12:59:13;;;;;;;18.00;10.20;;;;;;;1.61;77.51;96960.20;108859;1251;96056;-76
2023/01/21 13:01:48;;;;;;;21.20;12.40;;;;;;;1.44;77.44;96964.69;108812;1251;102252;-76
2023/01/21 13:04:22;;;;;;;14.50;9.80;;;;;;;1.34;77.60;96972.11;108856;1251;101341;-77
2023/01/21 13:07:05;;;;;;;10.80;7.70;;;;;;;1.36;77.49;96972.27;108828;1251;99931;-77
2023/01/21 13:09:44;;;;;;;14.70;9.10;;;;;;;1.39;77.56;96971.30;108791;1251;95817;-77
2023/01/21 13:12:19;;;;;;;13.60;8.40;;;;;;;1.39;77.69;96976.08;108865;1251;96577;-78
2023/01/21 13:14:56;;;;;;;15.50;9.00;;;;;;;1.40;77.50;96974.92;108653;1251;101461;-77
2023/01/21 13:17:32;;;;;;;28.10;15.90;;;;;;;1.34;77.35;96976.11;108774;1252;100427;-77
2023/01/21 13:20:00;;;;;;;26.30;14.40;;;;;;;1.27;77.41;96975.56;108683;1252;98857;-77
2023/01/21 13:22:45;;;;;;;20.80;13.80;;;;;;;1.27;77.54;96978.89;108750;1252;95688;-78
2023/01/21 13:25:19;;;;;;;15.60;9.90;;;;;;;1.30;77.84;96978.80;108776;1252;96117;-78
2023/01/21 13:27:57;;;;;;;15.50;10.10;;;;;;;1.32;77.81;96980.16;108738;1253;103577;-78
2023/01/21 13:30:26;;;;;;;18.60;10.80;;;;;;;1.33;77.82;96978.49;108432;1253;101040;-80
2023/01/21 13:33:12;;;;;;;26.00;16.80;;;;;;;1.35;77.77;96980.42;108736;1252;100031;-79
2023/01/21 13:36:03;;;;;;;32.40;18.00;;;;;;;1.40;77.97;96983.44;108744;1253;95700;-80
2023/01/21 13:38:46;;;;;;;53.70;29.70;;;;;;;1.41;77.90;96984.03;108830;1253;96107;-81
2023/01/21 13:42:16;;;;;;;54.70;31.30;;;;;;;1.32;77.94;96989.08;108583;1252;103145;-80
2023/01/21 13:44:56;;;;;;;104.50;46.90;;;;;;;1.28;77.99;96995.31;108180;1259;100349;-81
2023/01/21 13:47:25;;;;;;;103.70;47.40;;;;;;;1.29;78.06;96999.45;108157;1259;109023;-81
2023/01/21 13:50:13;;;;;;;108.80;50.80;;;;;;;1.31;78.01;97004.27;108198;1259;96095;-82
2023/01/21 13:53:26;;;;;;;114.80;54.90;;;;;;;1.31;78.07;97009.89;108119;1259;97067;-83
2023/01/21 13:56:01;;;;;;;106.40;54.80;;;;;;;1.29;78.10;97010.64;108179;1259;102071;-84
2023/01/21 13:58:42;;;;;;;90.20;49.70;;;;;;;1.27;78.14;97017.41;108206;1259;100368;-86
2023/01/21 14:01:18;;;;;;;103.80;55.50;;;;;;;1.26;78.31;97016.87;108170;1259;100239;-82
2023/01/21 14:04:04;;;;;;;95.40;55.10;;;;;;;1.28;78.37;97018.91;108174;1259;95686;-83
2023/01/21 14:06:51;;;;;;;83.90;47.80;;;;;;;1.27;78.27;97026.85;108150;1259;96088;-81
2023/01/21 14:09:32;;;;;;;70.00;38.10;;;;;;;1.21;78.33;97030.66;108149;1260;103795;-84
2023/01/21 14:12:15;;;;;;;70.20;38.40;;;;;;;1.17;78.36;97035.17;108141;1260;100363;-83
2023/01/21 14:15:21;;;;;;;69.20;39.00;;;;;;;1.18;78.49;97042.35;108133;1260;100197;-81
2023/01/21 14:18:13;;;;;;;73.30;41.30;;;;;;;1.19;78.50;97049.34;108104;1260;95698;-85
2023/01/21 14:21:09;;;;;;;79.60;42.70;;;;;;;1.21;78.74;97051.60;108374;1256;96111;-87
2023/01/21 14:23:55;;;;;;;72.30;40.80;;;;;;;1.17;78.66;97055.58;108610;1251;102633;-80
2023/01/21 14:26:23;;;;;;;75.20;41.90;;;;;;;1.13;78.70;97053.86;108746;1252;101061;-80
2023/01/21 14:29:00;;;;;;;91.20;45.50;;;;;;;1.14;78.79;97057.08;108781;1252;98980;-80
2023/01/21 14:31:42;;;;;;;87.00;43.80;;;;;;;1.17;78.81;97055.41;108716;1253;95701;-84
2023/01/21 14:34:19;;;;;;;72.30;37.40;;;;;;;1.19;78.79;97055.83;108769;1253;95972;-80
2023/01/21 14:37:04;;;;;;;69.90;38.30;;;;;;;1.22;78.84;97059.80;108738;1252;103483;-80
2023/01/21 14:39:50;;;;;;;75.40;39.60;;;;;;;1.19;78.82;97068.61;108747;1252;101101;-78
2023/01/21 14:42:25;;;;;;;73.90;41.70;;;;;;;1.15;78.85;97078.66;108557;1252;99951;-82
2023/01/21 14:44:53;;;;;;;64.60;37.30;;;;;;;1.12;78.96;97080.67;108740;1253;95770;-82
2023/01/21 14:47:44;;;;;;;84.90;45.70;;;;;;;1.11;78.94;97086.97;108770;1252;96063;-84
2023/01/21 14:51:05;;;;;;;81.60;45.20;;;;;;;1.09;78.98;97093.88;108772;1252;103674;-78
2023/01/21 14:53:45;;;;;;;91.40;47.00;;;;;;;1.08;79.08;97095.23;108227;1259;100522;-78
2023/01/21 14:56:23;;;;;;;103.40;55.80;;;;;;;1.06;79.11;97098.30;108250;1259;100192;-82
2023/01/21 14:58:58;;;;;;;104.60;56.70;;;;;;;1.05;79.19;97107.60;108244;1259;95668;-80
2023/01/21 15:01:36;;;;;;;100.30;52.30;;;;;;;1.04;79.17;97111.48;108050;1259;97230;-78
2023/01/21 15:04:27;;;;;;;91.90;48.30;;;;;;;1.00;79.22;97115.91;108248;1259;103647;-78
2023/01/21 15:07:08;;;;;;;84.90;44.40;;;;;;;0.98;79.26;97117.75;108237;1259;101348;-81
2023/01/21 15:09:44;;;;;;;84.90;47.80;;;;;;;0.97;79.34;97127.79;108104;1259;100080;-78
2023/01/21 15:12:25;;;;;;;89.70;51.90;;;;;;;0.98;79.43;97130.01;108221;1258;95723;-80
2023/01/21 15:15:02;;;;;;;85.60;48.90;;;;;;;0.99;79.43;97131.80;108230;1259;95773;-78
2023/01/21 15:18:09;;;;;;;90.00;49.60;;;;;;;0.95;79.24;97137.16;108273;1259;103439;-78
2023/01/21 15:20:39;;;;;;;78.10;44.40;;;;;;;0.92;79.32;97141.56;107806;1266;101593;-78
2023/01/21 15:23:31;;;;;;;96.40;52.00;;;;;;;0.88;79.43;97147.64;107805;1267;98311;-82
2023/01/21 15:26:10;;;;;;;85.00;47.90;;;;;;;0.84;79.40;97147.76;107771;1266;95730;-78
2023/01/21 15:28:54;;;;;;;83.10;45.90;;;;;;;0.83;79.53;97147.52;107802;1266;96697;-80
2023/01/21 15:31:23;;;;;;;81.90;47.20;;;;;;;0.83;79.60;97150.73;108204;1259;102585;-82
2023/01/21 15:34:02;;;;;;;87.70;47.70;;;;;;;0.81;79.61;97151.73;108185;1259;101358;-80
2023/01/21 15:36:42;;;;;;;90.40;49.50;;;;;;;0.79;79.63;97154.77;108176;1259;99937;-78
2023/01/21 15:39:23;;;;;;;91.70;50.70;;;;;;;0.80;79.66;97157.19;108136;1259;95988;-79
2023/01/21 15:42:25;;;;;;;87.50;49.20;;;;;;;0.84;79.72;97160.53;108249;1259;96080;-78
2023/01/21 15:44:56;;;;;;;87.30;49.90;;;;;;;0.88;79.67;97163.64;108212;1259;103541;-77
2023/01/21 15:47:30;;;;;;;149.00;79.00;;;;;;;0.89;79.65;97166.51;108220;1259;101641;-78
2023/01/21 15:50:15;;;;;;;128.90;67.20;;;;;;;0.91;79.68;97165.96;108173;1259;99049;-78
2023/01/21 15:53:06;;;;;;;104.10;55.70;;;;;;;0.91;79.63;97166.55;108009;1259;95641;-79
2023/01/21 15:55:48;;;;;;;94.90;51.70;;;;;;;0.84;79.58;97167.79;108200;1259;96199;-82
2023/01/21 15:58:38;;;;;;;89.40;50.90;;;;;;;0.78;79.42;97170.36;108628;1251;104823;-81
2023/01/21 16:01:32;;;;;;;93.00;51.80;;;;;;;0.68;79.35;97181.75;108813;1251;101295;-78
2023/01/21 16:04:26;;;;;;;97.00;53.60;;;;;;;0.62;79.42;97186.68;108821;1251;100039;-78
2023/01/21 16:07:17;;;;;;;98.90;54.80;;;;;;;0.55;79.56;97185.83;108852;1251;95610;-78
2023/01/21 16:10:13;;;;;;;123.90;67.30;;;;;;;0.51;79.66;97186.89;108244;1258;95805;-79
2023/01/21 16:12:59;;;;;;;117.00;70.40;;;;;;;0.53;79.64;97187.98;108062;1259;103334;-82
2023/01/21 16:16:11;;;;;;;111.10;66.70;;;;;;;0.54;79.75;97193.73;108180;1259;101208;-82
2023/01/21 16:18:43;;;;;;;113.60;66.60;;;;;;;0.55;79.81;97199.47;108152;1259;99927;-79
2023/01/21 16:21:12;;;;;;;102.50;58.40;;;;;;;0.54;79.87;97197.91;108208;1259;95898;-80
2023/01/21 16:23:43;;;;;;;166.40;97.50;;;;;;;0.55;79.95;97199.77;108087;1259;96426;-79
2023/01/21 16:26:24;;;;;;;136.90;76.00;;;;;;;0.56;79.88;97200.75;108232;1259;103651;-79
2023/01/21 16:28:53;;;;;;;113.80;64.30;;;;;;;0.55;79.76;97202.80;107999;1259;101338;-80
2023/01/21 16:31:22;;;;;;;107.00;63.10;;;;;;;0.54;79.83;97208.77;108012;1262;99967;-81
2023/01/21 16:33:52;;;;;;;88.00;51.40;;;;;;;0.54;79.90;97208.59;107941;1262;95683;-80
2023/01/21 16:36:21;;;;;;;101.80;54.60;;;;;;;0.54;79.93;97208.41;108086;1262;96041;-79
2023/01/21 16:38:50;;;;;;;104.90;57.20;;;;;;;0.52;79.91;97215.29;107998;1262;102078;-79
2023/01/21 16:41:22;;;;;;;110.00;58.50;;;;;;;0.51;79.80;97217.50;107860;1262;100104;-80
2023/01/21 16:44:06;;;;;;;108.10;57.20;;;;;;;0.51;79.73;97220.33;107595;1262;99035;-79
2023/01/21 16:46:37;;;;;;;98.90;52.90;;;;;;;0.49;79.63;97230.80;108105;1256;95618;-80
2023/01/21 16:49:14;;;;;;;94.70;50.60;;;;;;;0.48;79.79;97234.33;108385;1255;97277;-82
2023/01/21 16:51:53;;;;;;;83.70;45.40;;;;;;;0.49;79.86;97237.36;108581;1254;102880;-81
2023/01/21 16:54:29;;;;;;;77.40;44.00;;;;;;;0.49;79.77;97238.20;108568;1255;100336;-80
2023/01/21 16:56:57;;;;;;;92.30;51.30;;;;;;;0.50;79.78;97243.35;108536;1254;99926;-83
2023/01/21 16:59:30;;;;;;;100.80;53.60;;;;;;;0.50;79.72;97241.19;108518;1255;95608;-80
2023/01/21 17:02:00;;;;;;;89.80;49.20;;;;;;;0.50;79.70;97242.55;108402;1255;96119;-80
2023/01/21 17:04:29;;;;;;;135.40;68.80;;;;;;;0.47;79.75;97243.80;108564;1255;103500;-80
2023/01/21 17:06:57;;;;;;;134.30;69.20;;;;;;;0.46;79.77;97242.84;108408;1255;101353;-81
2023/01/21 17:09:36;;;;;;;102.90;54.60;;;;;;;0.47;79.67;97246.43;108730;1250;99158;-81
2023/01/21 17:12:09;;;;;;;103.60;55.10;;;;;;;0.48;79.63;97250.45;108826;1251;95534;-80
2023/01/21 17:14:38;;;;;;;104.20;56.60;;;;;;;0.47;79.70;97254.46;108904;1251;96048;-80
2023/01/21 17:17:08;;;;;;;103.70;56.20;;;;;;;0.46;79.65;97255.39;108867;1251;103583;-80
2023/01/21 17:19:43;;;;;;;119.30;70.60;;;;;;;0.47;79.81;97258.19;108700;1251;101361;-80
2023/01/21 17:22:21;;;;;;;115.60;67.80;;;;;;;0.47;79.83;97263.08;108644;1251;99538;-80
2023/01/21 17:25:29;;;;;;;109.30;63.10;;;;;;;0.46;79.91;97268.14;108412;1259;95964;-80
2023/01/21 17:27:59;;;;;;;110.80;59.30;;;;;;;0.47;79.95;97272.16;108829;1251;95976;-80
2023/01/21 17:30:51;;;;;;;106.20;60.30;;;;;;;0.45;80.01;97270.20;108572;1251;103442;-79
2023/01/21 17:33:29;;;;;;;110.80;60.30;;;;;;;0.46;80.02;97274.20;108523;1256;101319;-81
2023/01/21 17:36:12;;;;;;;103.00;58.30;;;;;;;0.49;80.05;97280.92;108542;1255;99927;-81
2023/01/21 17:38:45;;;;;;;106.60;60.70;;;;;;;0.52;80.19;97288.56;108326;1256;95640;-80
2023/01/21 17:41:36;;;;;;;110.40;62.10;;;;;;;0.52;80.06;97296.06;108551;1255;96060;-83
2023/01/21 17:44:27;;;;;;;147.90;79.50;;;;;;;0.46;80.00;97305.17;108371;1256;103080;-83
2023/01/21 17:47:00;;;;;;;145.40;72.10;;;;;;;0.40;80.02;97313.73;108526;1255;100425;-80
2023/01/21 17:49:30;;;;;;;135.30;70.00;;;;;;;0.34;80.04;97322.98;108516;1255;97465;-80
2023/01/21 17:52:00;;;;;;;148.70;76.10;;;;;;;0.30;80.19;97326.69;108300;1256;95678;-80
2023/01/21 17:54:29;;;;;;;133.50;72.90;;;;;;;0.29;80.21;97329.56;108540;1256;96080;-80
2023/01/21 17:57:00;;;;;;;118.50;65.20;;;;;;;0.32;80.31;97329.73;108558;1255;103649;-84
2023/01/21 17:59:36;;;;;;;118.20;65.10;;;;;;;0.36;80.39;97336.20;108130;1255;100507;-81
2023/01/21 18:02:13;;;;;;;113.60;62.60;;;;;;;0.39;80.28;97333.77;108218;1256;99262;-80
2023/01/21 18:04:44;;;;;;;120.70;66.50;;;;;;;0.42;80.34;97334.40;108201;1257;96056;-81
2023/01/21 18:07:29;;;;;;;129.00;66.00;;;;;;;0.46;80.42;97335.77;108405;1256;96126;-85
2023/01/21 18:10:02;;;;;;;113.10;61.90;;;;;;;0.49;80.32;97342.54;108544;1256;103176;-85
2023/01/21 18:12:30;;;;;;;193.30;103.00;;;;;;;0.47;80.27;97348.08;108782;1251;100063;-80
2023/01/21 18:15:01;;;;;;;214.20;114.10;;;;;;;0.46;80.25;97353.35;108474;1252;100212;-80
2023/01/21 18:17:30;;;;;;;170.40;94.30;;;;;;;0.42;80.21;97358.16;108606;1251;95686;-81
2023/01/21 18:19:59;;;;;;;173.00;96.90;;;;;;;0.36;80.27;97358.67;108757;1251;96215;-83
2023/01/21 18:22:30;;;;;;;176.90;98.20;;;;;;;0.35;80.29;97366.61;108810;1252;102405;-80
2023/01/21 18:25:01;;;;;;;177.60;94.50;;;;;;;0.35;80.34;97364.21;108813;1251;100251;-79
2023/01/21 18:27:31;;;;;;;166.20;87.90;;;;;;;0.35;80.41;97366.67;108681;1251;99952;-83
2023/01/21 18:30:00;;;;;;;167.70;88.20;;;;;;;0.36;80.45;97371.09;108834;1251;96014;-81
2023/01/21 18:32:29;;;;;;;171.30;86.70;;;;;;;0.39;80.52;97369.95;108757;1251;96039;-80
2023/01/21 18:34:58;;;;;;;153.30;78.10;;;;;;;0.40;80.53;97369.80;108882;1250;102828;-80
2023/01/21 18:37:27;;;;;;;226.80;100.00;;;;;;;0.36;80.41;97371.28;108530;1252;109125;-80
2023/01/21 18:39:56;;;;;;;216.00;101.50;;;;;;;0.33;80.46;97371.55;108868;1251;98955;-82
2023/01/21 18:42:25;;;;;;;182.90;94.80;;;;;;;0.31;80.42;97373.48;108524;1251;96150;-81
2023/01/21 18:44:54;;;;;;;191.30;101.80;;;;;;;0.30;80.53;97366.20;108647;1252;96093;-79
2023/01/21 18:47:25;;;;;;;176.60;99.00;;;;;;;0.32;80.61;97370.71;108818;1251;102333;-80
2023/01/21 18:49:56;;;;;;;143.00;80.10;;;;;;;0.31;80.58;97375.45;108868;1250;101275;-79
2023/01/21 18:52:25;;;;;;;156.00;86.70;;;;;;;0.31;80.58;97381.48;108762;1251;100068;-80
2023/01/21 18:54:54;;;;;;;151.10;86.00;;;;;;;0.29;80.48;97383.47;108771;1251;96004;-80
2023/01/21 18:57:23;;;;;;;144.00;83.10;;;;;;;0.23;80.49;97386.14;108850;1251;96161;-81
2023/01/21 18:59:53;;;;;;;148.40;83.40;;;;;;;0.22;80.62;97384.64;108846;1251;103186;-80
2023/01/21 19:02:21;;;;;;;132.70;74.10;;;;;;;0.25;80.63;97382.04;108884;1251;101371;-80
2023/01/21 19:04:50;;;;;;;113.40;64.40;;;;;;;0.23;80.64;97380.98;108848;1251;100108;-80
2023/01/21 19:07:24;;;;;;;93.50;54.60;;;;;;;0.21;80.61;97384.26;108853;1251;95931;-79
2023/01/21 19:09:53;;;;;;;92.90;54.00;;;;;;;0.21;80.76;97385.62;108404;1253;95827;-81
2023/01/21 19:12:23;;;;;;;103.00;58.20;;;;;;;0.24;80.73;97389.63;108668;1252;102696;-81
2023/01/21 19:14:52;;;;;;;97.00;55.10;;;;;;;0.25;80.81;97389.70;108882;1251;100348;-81
2023/01/21 19:17:28;;;;;;;84.00;48.00;;;;;;;0.27;80.76;97388.37;108812;1251;99868;-82
2023/01/21 19:19:59;;;;;;;91.50;49.50;;;;;;;0.30;80.61;97389.56;108820;1251;95659;-81
2023/01/21 19:22:29;;;;;;;84.60;47.30;;;;;;;0.30;80.56;97396.94;108870;1251;96324;-83
2023/01/21 19:24:57;;;;;;;83.30;47.70;;;;;;;0.29;80.55;97395.99;108874;1251;102546;-81
2023/01/21 19:27:33;;;;;;;82.70;48.80;;;;;;;0.27;80.54;97401.14;108546;1255;101368;-84
2023/01/21 19:30:02;;;;;;;88.60;49.70;;;;;;;0.27;80.54;97409.83;108235;1255;99211;-81
2023/01/21 19:32:31;;;;;;;91.30;50.50;;;;;;;0.27;80.57;97410.14;108396;1255;95812;-81
2023/01/21 19:35:00;;;;;;;87.80;49.00;;;;;;;0.28;80.55;97415.20;108573;1256;96005;-81
2023/01/21 19:37:30;;;;;;;86.40;48.60;;;;;;;0.27;80.58;97418.50;108519;1256;102561;-79
2023/01/21 19:39:58;;;;;;;84.20;45.90;;;;;;;0.25;80.60;97422.55;108532;1255;100659;-81
2023/01/21 19:42:27;;;;;;;81.60;46.00;;;;;;;0.25;80.65;97416.74;108504;1255;98859;-80
2023/01/21 19:45:00;;;;;;;82.00;45.70;;;;;;;0.26;80.65;97416.48;108478;1255;96308;-80
2023/01/21 19:47:30;;;;;;;76.30;43.40;;;;;;;0.26;80.68;97428.11;108546;1255;96102;-80
2023/01/21 19:50:02;;;;;;;65.60;38.10;;;;;;;0.27;80.65;97430.52;108512;1256;102081;-82
2023/01/21 19:52:33;;;;;;;61.70;33.70;;;;;;;0.27;80.58;97436.69;108419;1257;101323;-80
2023/01/21 19:55:04;;;;;;;52.80;30.90;;;;;;;0.25;80.50;97444.56;108239;1255;97695;-79
2023/01/21 19:57:33;;;;;;;67.60;40.40;;;;;;;0.23;80.26;97444.92;108520;1255;95659;-84
2023/01/21 20:00:02;;;;;;;152.60;60.20;;;;;;;0.23;80.31;97452.11;108393;1256;96187;-81
2023/01/21 20:02:31;;;;;;;125.70;51.20;;;;;;;0.24;80.25;97455.36;108535;1255;103449;-81
2023/01/21 20:05:01;;;;;;;92.70;42.60;;;;;;;0.25;80.13;97453.35;108394;1250;100572;-80
2023/01/21 20:07:30;;;;;;;73.80;38.70;;;;;;;0.26;80.04;97445.30;108823;1251;98760;-80
2023/01/21 20:09:59;;;;;;;70.50;36.20;;;;;;;0.26;80.07;97445.49;108869;1251;95608;-81
2023/01/21 20:12:29;;;;;;;52.60;30.90;;;;;;;0.26;79.96;97448.90;108788;1251;96262;-83
2023/01/21 20:14:57;;;;;;;58.00;31.70;;;;;;;0.24;79.96;97457.52;108836;1251;103741;-80
2023/01/21 20:17:27;;;;;;;55.20;31.80;;;;;;;0.25;79.94;97458.36;108781;1253;101464;-80
2023/01/21 20:19:56;;;;;;;83.50;47.90;;;;;;;0.25;79.98;97462.88;108799;1251;98344;-81
2023/01/21 20:22:26;;;;;;;85.40;50.20;;;;;;;0.26;80.11;97466.96;108809;1251;95761;-80
2023/01/21 20:24:57;;;;;;;78.60;45.90;;;;;;;0.22;80.10;97468.73;108893;1251;96030;-84
2023/01/21 20:27:26;;;;;;;76.90;46.00;;;;;;;0.20;80.15;97473.34;108857;1250;103248;-81
2023/01/21 20:29:54;;;;;;;78.20;44.80;;;;;;;0.17;80.17;97475.74;108871;1251;100404;-80
2023/01/21 20:32:23;;;;;;;76.00;44.50;;;;;;;0.14;80.17;97488.05;108841;1251;98941;-85
2023/01/21 20:34:52;;;;;;;70.50;41.10;;;;;;;0.12;80.16;97492.30;108851;1251;95645;-82
2023/01/21 20:37:22;;;;;;;61.80;36.60;;;;;;;0.11;80.26;97485.49;108891;1251;96107;-82
2023/01/21 20:39:52;;;;;;;59.80;35.50;;;;;;;0.13;80.18;97481.57;108594;1251;103399;-80
2023/01/21 20:42:22;;;;;;;52.90;32.40;;;;;;;0.14;80.37;97488.58;108918;1251;101288;-78
2023/01/21 20:44:51;;;;;;;58.90;32.60;;;;;;;0.15;80.32;97488.88;108317;1256;99949;-81
2023/01/21 20:47:23;;;;;;;57.30;33.30;;;;;;;0.16;80.32;97488.99;108207;1256;95611;-81
2023/01/21 20:49:53;;;;;;;59.40;33.50;;;;;;;0.16;80.34;97488.61;108252;1256;95741;-85
2023/01/21 20:52:42;;;;;;;51.10;28.80;;;;;;;0.19;80.47;97496.45;108187;1262;102211;-80
2023/01/21 20:55:15;;;;;;;41.30;24.90;;;;;;;0.23;80.39;97507.53;108200;1259;100450;-84
2023/01/21 20:57:45;;;;;;;48.20;28.30;;;;;;;0.26;80.31;97504.44;107927;1262;99238;-84
2023/01/21 21:00:18;;;;;;;43.30;27.00;;;;;;;0.26;80.33;97499.80;107790;1263;95639;-80
2023/01/21 21:02:47;;;;;;;71.20;39.20;;;;;;;0.29;80.35;97502.01;108101;1259;96085;-81
2023/01/21 21:05:19;;;;;;;62.80;37.10;;;;;;;0.33;80.23;97501.44;108288;1260;102316;-82
2023/01/21 21:07:48;;;;;;;59.70;33.90;;;;;;;0.33;80.07;97498.09;108263;1259;101637;-84
2023/01/21 21:10:28;;;;;;;66.20;36.10;;;;;;;0.31;79.99;97508.06;108241;1259;98751;-83
2023/01/21 21:12:57;;;;;;;78.10;39.00;;;;;;;0.26;80.07;97512.44;108210;1259;95818;-81
2023/01/21 21:15:34;;;;;;;64.30;34.70;;;;;;;0.24;80.14;97514.57;108213;1258;95712;-79
2023/01/21 21:18:03;;;;;;;64.10;36.00;;;;;;;0.22;80.16;97515.76;108237;1258;102613;-81
2023/01/21 21:20:53;;;;;;;61.40;32.70;;;;;;;0.22;80.23;97514.89;108252;1259;101295;-79
2023/01/21 21:23:24;;;;;;;58.10;32.20;;;;;;;0.20;80.11;97520.93;107909;1262;98633;-80
2023/01/21 21:25:54;;;;;;;60.00;31.60;;;;;;;0.19;80.19;97520.15;107912;1262;95996;-81
2023/01/21 21:28:24;;;;;;;68.40;35.80;;;;;;;0.22;80.25;97516.68;108061;1262;96117;-81
2023/01/21 21:30:52;;;;;;;61.10;34.60;;;;;;;0.24;80.13;97519.20;108006;1262;103013;-87
2023/01/21 21:33:22;;;;;;;65.30;33.40;;;;;;;0.21;80.17;97520.32;108150;1259;101847;-82
2023/01/21 21:35:50;;;;;;;59.80;33.40;;;;;;;0.19;80.25;97517.85;108349;1256;98745;-83
2023/01/21 21:38:20;;;;;;;60.80;33.20;;;;;;;0.19;80.17;97525.29;108482;1255;95737;-80
2023/01/21 21:40:52;;;;;;;88.10;44.10;;;;;;;0.18;80.35;97532.08;108509;1254;96122;-81
2023/01/21 21:43:34;;;;;;;80.30;42.10;;;;;;;0.17;80.22;97533.79;108541;1255;103657;-80
2023/01/21 21:49:15;;;;;;;74.10;38.10;;;;;;;0.12;80.26;97544.70;108229;1259;99974;-84
2023/01/21 21:51:44;;;;;;;67.40;36.50;;;;;;;0.11;80.44;97546.44;108259;1259;96115;-80
2023/01/21 21:54:17;;;;;;;68.20;36.00;;;;;;;0.12;80.43;97545.42;107977;1258;96265;-81
2023/01/21 21:56:45;;;;;;;63.10;36.40;;;;;;;0.12;80.44;97543.09;108275;1259;102651;-80
2023/01/21 21:59:14;;;;;;;64.00;35.70;;;;;;;0.12;80.44;97544.38;108128;1259;100549;-80
2023/01/21 22:01:44;;;;;;;74.30;37.50;;;;;;;0.11;80.40;97544.82;108387;1255;98147;-86
2023/01/21 22:04:12;;;;;;;84.70;42.80;;;;;;;0.12;80.46;97542.47;108184;1255;95930;-80
2023/01/21 22:06:40;;;;;;;84.00;43.10;;;;;;;0.11;80.47;97543.42;108293;1258;97345;-84
2023/01/21 22:09:09;;;;;;;82.00;42.70;;;;;;;0.09;80.47;97547.48;108516;1255;102472;-83
2023/01/21 22:11:37;;;;;;;78.10;42.00;;;;;;;0.09;80.61;97542.30;108410;1256;100608;-81
2023/01/21 22:14:06;;;;;;;82.30;44.50;;;;;;;0.12;80.64;97547.57;108256;1257;97738;-83
2023/01/21 22:16:35;;;;;;;85.90;43.20;;;;;;;0.11;80.55;97548.90;108509;1256;95658;-84
2023/01/21 22:19:03;;;;;;;86.20;44.10;;;;;;;0.10;80.56;97553.73;108550;1255;95680;-84
2023/01/21 22:21:34;;;;;;;71.30;37.40;;;;;;;0.13;80.66;97554.89;108775;1251;103120;-80
2023/01/21 22:24:04;;;;;;;64.70;35.90;;;;;;;0.17;80.66;97556.31;108828;1251;101241;-83
2023/01/21 22:26:34;;;;;;;64.40;36.10;;;;;;;0.21;80.77;97555.95;108798;1251;98894;-81
2023/01/21 22:29:03;;;;;;;70.50;38.30;;;;;;;0.23;80.78;97553.79;108813;1251;95534;-84
2023/01/21 22:31:33;;;;;;;70.20;40.30;;;;;;;0.24;80.60;97549.52;108860;1251;96036;-83
2023/01/21 22:34:01;;;;;;;67.90;42.10;;;;;;;0.23;80.50;97549.81;108816;1251;103660;-84
2023/01/21 22:36:30;;;;;;;66.50;39.80;;;;;;;0.21;80.57;97553.58;108726;1251;101277;-80
2023/01/21 22:38:59;;;;;;;73.30;39.60;;;;;;;0.19;80.45;97550.75;108832;1251;99903;-82
2023/01/21 22:41:28;;;;;;;69.10;39.90;;;;;;;0.19;80.61;97544.27;108784;1251;95859;-84
2023/01/21 22:43:56;;;;;;;63.20;36.70;;;;;;;0.18;80.63;97544.27;108846;1251;95968;-81
2023/01/21 22:46:29;;;;;;;78.20;42.10;;;;;;;0.18;80.49;97545.24;108843;1251;103527;-83
2023/01/21 22:48:57;;;;;;;80.20;41.60;;;;;;;0.13;80.45;97546.70;108850;1251;101066;-82
2023/01/21 22:51:26;;;;;;;81.00;43.30;;;;;;;0.12;80.70;97544.39;108862;1251;99897;-81
2023/01/21 22:53:54;;;;;;;70.60;38.10;;;;;;;0.12;80.73;97548.48;108544;1251;95952;-80
2023/01/21 22:56:24;;;;;;;70.60;37.00;;;;;;;0.12;80.75;97548.79;108877;1251;96506;-81
2023/01/21 22:58:52;;;;;;;67.70;35.20;;;;;;;0.15;80.80;97552.40;108848;1251;103602;-85
2023/01/21 23:01:29;;;;;;;54.20;29.30;;;;;;;0.18;80.85;97557.38;108837;1251;101439;-83
2023/01/21 23:03:59;;;;;;;50.90;30.70;;;;;;;0.20;80.72;97562.04;108791;1251;99931;-81
2023/01/21 23:06:28;;;;;;;49.80;27.50;;;;;;;0.19;80.73;97560.71;108804;1251;95709;-83
2023/01/21 23:08:56;;;;;;;50.10;28.50;;;;;;;0.19;80.60;97560.52;108836;1251;96059;-80
2023/01/21 23:11:24;;;;;;;48.70;27.50;;;;;;;0.20;80.62;97555.66;108550;1251;102675;-80
2023/01/21 23:13:54;;;;;;;52.60;28.80;;;;;;;0.20;80.62;97559.69;108830;1251;100288;-80
2023/01/21 23:16:22;;;;;;;56.10;28.60;;;;;;;0.19;80.58;97558.71;108529;1253;99001;-80
2023/01/21 23:18:51;;;;;;;49.50;26.00;;;;;;;0.19;80.53;97564.42;108820;1251;95550;-79
2023/01/21 23:21:21;;;;;;;48.10;27.30;;;;;;;0.15;80.61;97566.85;108840;1251;96052;-80
2023/01/21 23:23:50;;;;;;;47.50;24.70;;;;;;;0.16;80.67;97564.49;108831;1251;103556;-80
2023/01/21 23:26:19;;;;;;;42.50;27.00;;;;;;;0.18;80.58;97568.73;108663;1251;100541;-81
2023/01/21 23:28:47;;;;;;;40.50;23.00;;;;;;;0.19;80.48;97571.15;108794;1251;99885;-80
2023/01/21 23:31:18;;;;;;;45.10;22.50;;;;;;;0.16;80.36;97571.36;108605;1255;95628;-82
2023/01/21 23:33:52;;;;;;;38.60;19.90;;;;;;;0.14;80.22;97576.70;108864;1251;96029;-80
2023/01/21 23:36:21;;;;;;;39.30;20.20;;;;;;;0.15;80.21;97580.56;108878;1251;103216;-82
2023/01/21 23:38:49;;;;;;;55.30;27.60;;;;;;;0.17;80.33;97583.91;108563;1254;100545;-82
2023/01/21 23:41:18;;;;;;;44.90;25.20;;;;;;;0.17;80.27;97583.19;108811;1251;98587;-81
2023/01/21 23:43:47;;;;;;;76.90;42.80;;;;;;;0.18;80.32;97583.77;108804;1255;95615;-79
2023/01/21 23:46:18;;;;;;;48.10;25.00;;;;;;;0.21;80.31;97584.79;108870;1251;95995;-79
2023/01/21 23:48:46;;;;;;;48.60;21.50;;;;;;;0.22;80.18;97587.70;108856;1251;102574;-79
2023/01/21 23:51:15;;;;;;;33.90;19.50;;;;;;;0.21;80.21;97586.66;108854;1251;100342;-83
2023/01/21 23:53:44;;;;;;;38.20;20.10;;;;;;;0.20;80.11;97593.17;108734;1251;99023;-79
2023/01/21 23:56:16;;;;;;;34.30;18.60;;;;;;;0.20;80.02;97590.12;108815;1251;95858;-80
2023/01/21 23:58:44;;;;;;;37.40;19.90;;;;;;;0.20;80.09;97591.74;108886;1255;96301;-81
